createdAt,value
2023-04-09T00:00:39.639Z,7.91
2023-04-09T00:01:35.228Z,7.88
2023-04-09T00:02:31.291Z,7.78
2023-04-09T00:03:26.915Z,7.77
2023-04-09T00:04:22.449Z,7.80
2023-04-09T00:05:17.933Z,7.77
2023-04-09T00:06:13.506Z,7.81
2023-04-09T00:07:09.562Z,7.71
2023-04-09T00:08:05.115Z,7.77
2023-04-09T00:09:01.174Z,7.68
2023-04-09T00:09:57.197Z,7.77
2023-04-09T00:10:53.206Z,7.77
2023-04-09T00:11:38.504Z,7.77
2023-04-09T00:12:33.951Z,7.74
2023-04-09T00:13:38.561Z,7.71
2023-04-09T00:14:25.642Z,7.55
2023-04-09T00:15:30.556Z,7.61
2023-04-09T00:16:17.242Z,7.62
2023-04-09T00:17:13.246Z,7.64
2023-04-09T00:18:08.816Z,7.58
2023-04-09T00:19:04.396Z,7.50
2023-04-09T00:19:59.952Z,7.52
2023-04-09T00:20:55.495Z,7.62
2023-04-09T00:21:51.516Z,7.68
2023-04-09T00:22:47.081Z,7.57
2023-04-09T00:23:42.654Z,7.55
2023-04-09T00:24:38.219Z,7.57
2023-04-09T00:25:34.257Z,7.54
2023-04-09T00:26:29.799Z,7.55
2023-04-09T00:27:25.398Z,7.50
2023-04-09T00:28:32.718Z,7.54
2023-04-09T00:29:28.272Z,7.55
2023-04-09T00:30:24.866Z,7.64
2023-04-09T00:31:21.036Z,7.52
2023-04-09T00:32:15.955Z,7.58
2023-04-09T00:33:11.525Z,7.54
2023-04-09T00:34:07.561Z,7.47
2023-04-09T00:35:03.120Z,7.42
2023-04-09T00:35:58.701Z,7.43
2023-04-09T00:36:54.262Z,7.40
2023-04-09T00:37:49.852Z,7.37
2023-04-09T00:38:45.902Z,7.34
2023-04-09T00:39:41.445Z,7.24
2023-04-09T00:40:37.002Z,7.39
2023-04-09T00:41:33.050Z,7.39
2023-04-09T00:42:28.615Z,7.34
2023-04-09T00:43:24.167Z,7.37
2023-04-09T00:44:19.742Z,7.26
2023-04-09T00:45:27.087Z,7.31
2023-04-09T00:46:22.662Z,7.33
2023-04-09T00:47:18.206Z,7.31
2023-04-09T00:48:13.764Z,7.29
2023-04-09T00:49:09.330Z,7.26
2023-04-09T00:50:05.334Z,7.29
2023-04-09T00:51:00.888Z,7.25
2023-04-09T00:51:56.451Z,7.28
2023-04-09T00:52:52.057Z,7.22
2023-04-09T00:53:47.618Z,7.19
2023-04-09T00:54:43.164Z,7.24
2023-04-09T00:55:39.203Z,7.22
2023-04-09T00:56:35.783Z,7.21
2023-04-09T00:57:31.368Z,7.21
2023-04-09T00:58:26.915Z,7.22
2023-04-09T00:59:22.462Z,7.21
2023-04-09T01:00:18.034Z,7.22
2023-04-09T01:01:14.066Z,7.13
2023-04-09T01:02:09.693Z,7.11
2023-04-09T01:03:05.364Z,7.13
2023-04-09T01:04:01.285Z,7.10
2023-04-09T01:04:57.328Z,7.15
2023-04-09T01:05:52.876Z,7.11
2023-04-09T01:06:48.903Z,7.07
2023-04-09T01:07:44.473Z,7.06
2023-04-09T01:08:40.049Z,7.00
2023-04-09T01:09:35.598Z,7.00
2023-04-09T01:10:31.635Z,7.07
2023-04-09T01:11:27.229Z,6.99
2023-04-09T01:12:22.780Z,6.99
2023-04-09T01:13:18.817Z,6.99
2023-04-09T01:14:14.945Z,7.01
2023-04-09T01:15:10.477Z,6.92
2023-04-09T01:16:06.549Z,6.92
2023-04-09T01:17:02.526Z,6.93
2023-04-09T01:17:58.574Z,6.88
2023-04-09T01:18:54.234Z,6.91
2023-04-09T01:19:50.142Z,6.88
2023-04-09T01:20:46.157Z,6.89
2023-04-09T01:21:42.215Z,6.85
2023-04-09T01:22:37.744Z,6.82
2023-04-09T01:23:33.792Z,6.75
2023-04-09T01:24:29.343Z,6.73
2023-04-09T01:25:24.881Z,6.74
2023-04-09T01:26:20.479Z,6.75
2023-04-09T01:27:16.078Z,6.71
2023-04-09T01:28:12.106Z,6.73
2023-04-09T01:29:07.700Z,6.75
2023-04-09T01:30:03.232Z,6.73
2023-04-09T01:30:58.786Z,6.71
2023-04-09T01:31:54.309Z,6.74
2023-04-09T01:32:49.877Z,6.79
2023-04-09T01:33:45.414Z,6.73
2023-04-09T01:34:40.973Z,6.79
2023-04-09T01:35:36.532Z,6.64
2023-04-09T01:36:32.570Z,6.67
2023-04-09T01:37:28.121Z,6.64
2023-04-09T01:38:23.665Z,6.71
2023-04-09T01:39:19.206Z,6.61
2023-04-09T01:40:14.792Z,6.61
2023-04-09T01:41:10.778Z,6.57
2023-04-09T01:42:06.798Z,6.63
2023-04-09T01:43:02.366Z,6.61
2023-04-09T01:43:58.411Z,6.52
2023-04-09T01:44:53.990Z,6.63
2023-04-09T01:45:49.541Z,6.63
2023-04-09T01:46:45.118Z,6.60
2023-04-09T01:47:40.681Z,6.55
2023-04-09T01:48:36.698Z,6.57
2023-04-09T01:49:32.288Z,6.52
2023-04-09T01:50:27.866Z,6.52
2023-04-09T01:51:23.482Z,6.46
2023-04-09T01:52:18.970Z,6.47
2023-04-09T01:53:14.516Z,6.49
2023-04-09T01:54:11.096Z,6.49
2023-04-09T01:55:07.139Z,6.43
2023-04-09T01:56:03.217Z,6.43
2023-04-09T01:56:59.191Z,6.45
2023-04-09T01:57:54.742Z,6.45
2023-04-09T01:58:50.643Z,6.42
2023-04-09T01:59:46.356Z,6.47
2023-04-09T02:00:42.405Z,6.45
2023-04-09T02:01:38.010Z,6.45
2023-04-09T02:02:34.198Z,6.43
2023-04-09T02:03:30.133Z,6.43
2023-04-09T02:04:25.616Z,6.35
2023-04-09T02:05:21.641Z,6.38
2023-04-09T02:06:17.193Z,6.38
2023-04-09T02:07:12.752Z,6.45
2023-04-09T02:08:08.786Z,6.34
2023-04-09T02:09:04.334Z,6.42
2023-04-09T02:10:00.378Z,6.37
2023-04-09T02:10:56.419Z,6.35
2023-04-09T02:11:51.949Z,6.37
2023-04-09T02:12:47.501Z,6.28
2023-04-09T02:13:43.056Z,6.30
2023-04-09T02:14:38.634Z,6.27
2023-04-09T02:15:34.225Z,6.28
2023-04-09T02:16:29.767Z,6.18
2023-04-09T02:17:25.322Z,6.27
2023-04-09T02:18:20.860Z,6.21
2023-04-09T02:19:16.419Z,6.25
2023-04-09T02:20:12.979Z,6.34
2023-04-09T02:21:08.514Z,6.31
2023-04-09T02:22:04.556Z,6.27
2023-04-09T02:23:00.130Z,6.25
2023-04-09T02:23:55.667Z,6.21
2023-04-09T02:24:51.208Z,6.21
2023-04-09T02:25:46.803Z,6.13
2023-04-09T02:26:42.292Z,6.18
2023-04-09T02:27:38.349Z,6.21
2023-04-09T02:28:34.344Z,6.13
2023-04-09T02:29:29.920Z,6.16
2023-04-09T02:30:25.479Z,6.13
2023-04-09T02:31:21.568Z,6.09
2023-04-09T02:32:17.635Z,6.15
2023-04-09T02:33:13.630Z,6.13
2023-04-09T02:34:09.194Z,6.15
2023-04-09T02:35:04.774Z,6.12
2023-04-09T02:36:00.365Z,6.13
2023-04-09T02:36:55.916Z,6.16
2023-04-09T02:37:51.465Z,6.08
2023-04-09T02:38:47.488Z,6.08
2023-04-09T02:39:43.038Z,6.06
2023-04-09T02:40:38.587Z,6.12
2023-04-09T02:41:34.136Z,6.02
2023-04-09T02:42:29.682Z,6.03
2023-04-09T02:43:25.225Z,6.09
2023-04-09T02:44:20.789Z,6.05
2023-04-09T02:45:16.330Z,6.03
2023-04-09T02:46:11.933Z,6.03
2023-04-09T02:47:07.445Z,5.93
2023-04-09T02:48:03.025Z,5.95
2023-04-09T02:48:59.033Z,5.94
2023-04-09T02:49:54.579Z,5.97
2023-04-09T02:50:50.210Z,5.94
2023-04-09T02:51:46.691Z,5.95
2023-04-09T02:52:42.236Z,5.98
2023-04-09T02:53:37.831Z,5.95
2023-04-09T02:54:33.362Z,5.94
2023-04-09T02:55:29.919Z,5.97
2023-04-09T02:56:25.436Z,5.93
2023-04-09T02:57:21.473Z,5.87
2023-04-09T02:58:17.056Z,5.93
2023-04-09T02:59:12.593Z,5.84
2023-04-09T03:00:08.145Z,5.87
2023-04-09T03:01:04.172Z,5.93
2023-04-09T03:02:00.303Z,5.85
2023-04-09T03:02:55.996Z,5.82
2023-04-09T03:03:51.493Z,5.82
2023-04-09T03:04:47.388Z,5.82
2023-04-09T03:05:42.958Z,5.73
2023-04-09T03:06:39.519Z,5.82
2023-04-09T03:07:35.075Z,5.91
2023-04-09T03:08:31.689Z,5.85
2023-04-09T03:09:27.241Z,5.79
2023-04-09T03:10:22.817Z,5.87
2023-04-09T03:11:18.367Z,5.90
2023-04-09T03:12:13.929Z,5.84
2023-04-09T03:13:09.966Z,5.76
2023-04-09T03:14:05.518Z,5.73
2023-04-09T03:15:01.568Z,5.76
2023-04-09T03:15:57.156Z,5.75
2023-04-09T03:16:52.703Z,5.77
2023-04-09T03:17:48.762Z,5.84
2023-04-09T03:18:44.778Z,5.66
2023-04-09T03:19:40.355Z,5.77
2023-04-09T03:20:36.369Z,5.72
2023-04-09T03:21:31.926Z,5.77
2023-04-09T03:22:27.940Z,5.72
2023-04-09T03:23:23.488Z,5.75
2023-04-09T03:24:19.101Z,5.75
2023-04-09T03:25:14.613Z,5.69
2023-04-09T03:26:10.176Z,5.69
2023-04-09T03:27:06.213Z,5.67
2023-04-09T03:28:01.772Z,5.73
2023-04-09T03:28:57.325Z,5.65
2023-04-09T03:29:52.887Z,5.70
2023-04-09T03:30:48.901Z,5.70
2023-04-09T03:31:44.486Z,5.69
2023-04-09T03:32:40.510Z,5.67
2023-04-09T03:33:36.037Z,5.66
2023-04-09T03:34:31.647Z,5.62
2023-04-09T03:35:27.723Z,5.59
2023-04-09T03:36:23.225Z,5.62
2023-04-09T03:37:18.798Z,5.59
2023-04-09T03:38:14.349Z,5.52
2023-04-09T03:39:09.913Z,5.51
2023-04-09T03:40:05.487Z,5.52
2023-04-09T03:41:01.513Z,5.50
2023-04-09T03:41:57.153Z,5.59
2023-04-09T03:42:53.187Z,5.52
2023-04-09T03:43:49.214Z,5.65
2023-04-09T03:44:44.764Z,5.51
2023-04-09T03:45:40.317Z,5.55
2023-04-09T03:46:35.903Z,5.55
2023-04-09T03:47:31.432Z,5.50
2023-04-09T03:48:26.975Z,5.55
2023-04-09T03:49:23.002Z,5.55
2023-04-09T03:50:20.079Z,5.52
2023-04-09T03:51:15.650Z,5.52
2023-04-09T03:52:11.155Z,5.52
2023-04-09T03:53:06.709Z,5.51
2023-04-09T03:54:02.343Z,5.52
2023-04-09T03:54:57.834Z,5.48
2023-04-09T03:55:53.392Z,5.43
2023-04-09T03:56:49.429Z,5.50
2023-04-09T03:57:45.454Z,5.40
2023-04-09T03:58:40.992Z,5.54
2023-04-09T03:59:36.553Z,5.50
2023-04-09T04:00:32.111Z,5.48
2023-04-09T04:01:27.651Z,5.34
2023-04-09T04:02:23.405Z,5.36
2023-04-09T04:03:19.848Z,5.39
2023-04-09T04:04:15.943Z,5.37
2023-04-09T04:05:11.876Z,5.44
2023-04-09T04:06:18.699Z,5.40
2023-04-09T04:07:14.269Z,5.36
2023-04-09T04:08:09.796Z,5.39
2023-04-09T04:09:05.364Z,5.32
2023-04-09T04:10:01.505Z,5.30
2023-04-09T04:10:56.945Z,5.32
2023-04-09T04:11:52.481Z,5.36
2023-04-09T04:12:48.574Z,5.32
2023-04-09T04:13:44.547Z,5.40
2023-04-09T04:14:40.091Z,5.32
2023-04-09T04:15:36.139Z,5.36
2023-04-09T04:16:32.209Z,5.37
2023-04-09T04:17:28.227Z,5.30
2023-04-09T04:18:23.757Z,5.29
2023-04-09T04:19:19.341Z,5.29
2023-04-09T04:20:14.878Z,5.21
2023-04-09T04:21:10.441Z,5.22
2023-04-09T04:22:06.439Z,5.32
2023-04-09T04:23:02.492Z,5.25
2023-04-09T04:23:58.031Z,5.33
2023-04-09T04:24:53.797Z,5.22
2023-04-09T04:25:49.355Z,5.24
2023-04-09T04:26:44.929Z,5.18
2023-04-09T04:27:40.504Z,5.22
2023-04-09T04:28:36.038Z,5.32
2023-04-09T04:29:32.107Z,5.33
2023-04-09T04:30:50.178Z,5.24
2023-04-09T04:31:46.265Z,5.29
2023-04-09T04:32:41.791Z,5.25
2023-04-09T04:33:37.289Z,5.14
2023-04-09T04:34:32.844Z,5.16
2023-04-09T04:35:28.440Z,5.15
2023-04-09T04:36:23.966Z,5.21
2023-04-09T04:37:19.518Z,5.16
2023-04-09T04:38:15.590Z,5.14
2023-04-09T04:39:12.134Z,5.18
2023-04-09T04:40:07.748Z,5.15
2023-04-09T04:41:03.263Z,5.16
2023-04-09T04:41:59.296Z,5.22
2023-04-09T04:42:55.340Z,5.21
2023-04-09T04:43:50.931Z,5.22
2023-04-09T04:44:46.485Z,5.24
2023-04-09T04:45:42.569Z,5.18
2023-04-09T04:46:38.566Z,5.22
2023-04-09T04:47:34.150Z,5.18
2023-04-09T04:48:29.694Z,5.14
2023-04-09T04:49:25.242Z,5.16
2023-04-09T04:50:20.782Z,5.12
2023-04-09T04:51:16.385Z,5.18
2023-04-09T04:52:11.955Z,5.16
2023-04-09T04:53:07.487Z,5.15
2023-04-09T04:54:03.064Z,5.12
2023-04-09T04:54:58.591Z,5.15
2023-04-09T04:55:55.646Z,5.18
2023-04-09T04:56:51.444Z,5.21
2023-04-09T04:57:46.983Z,5.24
2023-04-09T04:58:43.014Z,5.16
2023-04-09T04:59:38.560Z,5.15
2023-04-09T05:00:34.100Z,5.19
2023-04-09T05:01:30.151Z,5.25
2023-04-09T05:02:26.295Z,5.30
2023-04-09T05:03:21.836Z,5.32
2023-04-09T05:04:17.272Z,5.25
2023-04-09T05:05:12.827Z,5.32
2023-04-09T05:06:08.462Z,5.34
2023-04-09T05:07:03.997Z,5.22
2023-04-09T05:07:59.546Z,5.21
2023-04-09T05:08:55.192Z,5.33
2023-04-09T05:09:52.153Z,5.24
2023-04-09T05:10:49.196Z,5.34
2023-04-09T05:11:34.348Z,5.27
2023-04-09T05:12:29.909Z,5.19
2023-04-09T05:13:25.525Z,5.24
2023-04-09T05:14:21.542Z,5.32
2023-04-09T05:15:17.200Z,5.33
2023-04-09T05:16:12.789Z,5.27
2023-04-09T05:17:09.345Z,5.27
2023-04-09T05:18:04.875Z,5.25
2023-04-09T05:19:00.514Z,5.30
2023-04-09T05:19:56.008Z,5.24
2023-04-09T05:20:52.566Z,5.22
2023-04-09T05:21:48.628Z,5.36
2023-04-09T05:22:44.677Z,5.30
2023-04-09T05:23:40.726Z,5.43
2023-04-09T05:24:36.313Z,5.39
2023-04-09T05:25:31.864Z,5.41
2023-04-09T05:26:27.384Z,5.37
2023-04-09T05:27:22.942Z,5.33
2023-04-09T05:28:18.490Z,5.40
2023-04-09T05:29:14.060Z,5.40
2023-04-09T05:30:09.620Z,5.41
2023-04-09T05:30:54.144Z,5.50
2023-04-09T05:31:51.171Z,5.48
2023-04-09T05:32:47.242Z,5.48
2023-04-09T05:33:43.218Z,5.54
2023-04-09T05:34:40.244Z,5.48
2023-04-09T05:35:36.357Z,5.51
2023-04-09T05:36:32.383Z,5.51
2023-04-09T05:37:27.940Z,5.51
2023-04-09T05:38:23.493Z,5.48
2023-04-09T05:39:19.060Z,5.51
2023-04-09T05:40:14.631Z,5.50
2023-04-09T05:41:10.223Z,5.50
2023-04-09T05:42:05.788Z,5.47
2023-04-09T05:43:01.813Z,5.50
2023-04-09T05:44:00.467Z,5.54
2023-04-09T05:44:54.519Z,5.52
2023-04-09T05:45:50.575Z,5.51
2023-04-09T05:46:46.105Z,5.52
2023-04-09T05:47:42.208Z,5.55
2023-04-09T05:48:38.202Z,5.66
2023-04-09T05:49:34.758Z,5.54
2023-04-09T05:50:30.953Z,5.52
2023-04-09T05:51:26.468Z,5.58
2023-04-09T05:52:22.484Z,5.58
2023-04-09T05:53:18.890Z,5.69
2023-04-09T05:54:14.439Z,5.75
2023-04-09T05:55:10.099Z,5.73
2023-04-09T05:56:06.670Z,5.75
2023-04-09T05:57:02.840Z,5.72
2023-04-09T05:57:58.397Z,5.79
2023-04-09T05:58:54.420Z,5.72
2023-04-09T05:59:49.982Z,5.79
2023-04-09T06:00:45.995Z,5.84
2023-04-09T06:01:41.647Z,5.80
2023-04-09T06:02:37.856Z,5.85
2023-04-09T06:03:33.843Z,5.82
2023-04-09T06:04:29.779Z,5.90
2023-04-09T06:05:25.297Z,5.80
2023-04-09T06:06:21.343Z,5.84
2023-04-09T06:07:17.906Z,5.87
2023-04-09T06:08:13.467Z,5.97
2023-04-09T06:09:20.296Z,5.93
2023-04-09T06:10:15.901Z,5.95
2023-04-09T06:11:11.922Z,5.94
2023-04-09T06:12:07.982Z,6.09
2023-04-09T06:13:03.522Z,6.12
2023-04-09T06:13:59.084Z,6.13
2023-04-09T06:14:54.680Z,6.18
2023-04-09T06:15:50.253Z,6.18
2023-04-09T06:16:45.787Z,6.27
2023-04-09T06:17:41.424Z,6.25
2023-04-09T06:18:36.919Z,6.24
2023-04-09T06:19:32.501Z,6.37
2023-04-09T06:20:28.586Z,6.46
2023-04-09T06:21:24.117Z,6.38
2023-04-09T06:22:19.645Z,6.45
2023-04-09T06:23:15.188Z,6.52
2023-04-09T06:24:10.740Z,6.61
2023-04-09T06:25:06.333Z,6.56
2023-04-09T06:26:01.872Z,6.61
2023-04-09T06:26:57.405Z,6.65
2023-04-09T06:27:52.970Z,6.78
2023-04-09T06:28:48.578Z,6.81
2023-04-09T06:29:46.540Z,6.78
2023-04-09T06:30:42.585Z,6.71
2023-04-09T06:31:38.127Z,6.86
2023-04-09T06:32:46.822Z,6.96
2023-04-09T06:33:29.741Z,7.04
2023-04-09T06:34:25.762Z,7.04
2023-04-09T06:35:21.788Z,7.11
2023-04-09T06:36:17.342Z,7.15
2023-04-09T06:37:12.909Z,7.28
2023-04-09T06:38:08.929Z,7.33
2023-04-09T06:39:04.470Z,7.44
2023-04-09T06:40:01.421Z,7.40
2023-04-09T06:40:56.081Z,7.37
2023-04-09T06:41:52.651Z,7.44
2023-04-09T06:42:48.178Z,7.57
2023-04-09T06:43:43.861Z,7.50
2023-04-09T06:44:39.389Z,7.54
2023-04-09T06:45:35.426Z,7.66
2023-04-09T06:46:31.000Z,7.58
2023-04-09T06:47:27.047Z,7.69
2023-04-09T06:48:22.593Z,7.78
2023-04-09T06:49:18.633Z,7.87
2023-04-09T06:50:15.692Z,7.87
2023-04-09T06:51:11.318Z,7.86
2023-04-09T06:52:06.864Z,7.84
2023-04-09T06:53:02.901Z,7.84
2023-04-09T06:53:59.988Z,7.96
2023-04-09T06:54:55.981Z,8.10
2023-04-09T06:55:52.015Z,8.13
2023-04-09T06:56:48.050Z,8.28
2023-04-09T06:57:43.721Z,8.31
2023-04-09T06:58:39.650Z,8.32
2023-04-09T06:59:35.235Z,8.32
2023-04-09T07:00:30.768Z,8.41
2023-04-09T07:01:26.356Z,8.47
2023-04-09T07:02:21.955Z,8.62
2023-04-09T07:03:17.566Z,8.67
2023-04-09T07:04:14.254Z,8.72
2023-04-09T07:05:09.648Z,8.77
2023-04-09T07:06:05.815Z,8.80
2023-04-09T07:07:01.365Z,8.86
2023-04-09T07:07:56.947Z,8.85
2023-04-09T07:08:52.789Z,8.93
2023-04-09T07:09:48.559Z,8.90
2023-04-09T07:10:44.602Z,8.93
2023-04-09T07:11:51.445Z,8.96
2023-04-09T07:12:47.106Z,8.98
2023-04-09T07:13:43.168Z,9.06
2023-04-09T07:14:38.863Z,9.12
2023-04-09T07:15:34.399Z,9.14
2023-04-09T07:16:30.045Z,9.30
2023-04-09T07:17:25.540Z,9.32
2023-04-09T07:18:22.086Z,9.27
2023-04-09T07:19:18.114Z,9.36
2023-04-09T07:20:13.708Z,9.42
2023-04-09T07:21:09.272Z,9.34
2023-04-09T07:22:05.311Z,9.52
2023-04-09T07:23:01.362Z,9.54
2023-04-09T07:23:56.886Z,9.52
2023-04-09T07:24:52.458Z,9.54
2023-04-09T07:25:48.010Z,9.65
2023-04-09T07:26:43.578Z,9.66
2023-04-09T07:27:39.124Z,9.73
2023-04-09T07:28:34.679Z,9.73
2023-04-09T07:29:30.730Z,9.73
2023-04-09T07:30:26.790Z,9.81
2023-04-09T07:31:22.378Z,9.93
2023-04-09T07:32:18.961Z,9.88
2023-04-09T07:33:14.510Z,9.96
2023-04-09T07:34:10.605Z,10.02
2023-04-09T07:35:06.121Z,10.03
2023-04-09T07:36:01.714Z,10.10
2023-04-09T07:36:58.244Z,10.10
2023-04-09T07:37:53.813Z,10.09
2023-04-09T07:38:49.416Z,10.18
2023-04-09T07:39:45.472Z,10.20
2023-04-09T07:40:41.027Z,10.21
2023-04-09T07:41:36.575Z,10.26
2023-04-09T07:42:32.133Z,10.28
2023-04-09T07:43:27.704Z,10.28
2023-04-09T07:44:23.720Z,10.38
2023-04-09T07:45:19.280Z,10.28
2023-04-09T07:46:15.332Z,10.54
2023-04-09T07:47:10.872Z,10.45
2023-04-09T07:48:06.924Z,10.57
2023-04-09T07:49:02.981Z,10.41
2023-04-09T07:49:59.019Z,10.55
2023-04-09T07:50:54.590Z,10.46
2023-04-09T07:51:50.634Z,10.55
2023-04-09T07:52:46.212Z,10.68
2023-04-09T07:53:43.250Z,10.76
2023-04-09T07:54:50.081Z,10.90
2023-04-09T07:55:45.646Z,10.85
2023-04-09T07:56:41.689Z,10.87
2023-04-09T07:57:37.243Z,10.93
2023-04-09T07:58:33.304Z,10.93
2023-04-09T07:59:28.867Z,11.01
2023-04-09T08:00:25.023Z,11.05
2023-04-09T08:01:20.966Z,11.04
2023-04-09T08:02:16.601Z,11.04
2023-04-09T08:03:12.331Z,11.16
2023-04-09T08:04:08.324Z,11.18
2023-04-09T08:05:03.824Z,11.31
2023-04-09T08:05:59.344Z,11.33
2023-04-09T08:06:55.358Z,11.37
2023-04-09T08:07:50.925Z,11.40
2023-04-09T08:08:46.984Z,11.49
2023-04-09T08:09:42.540Z,11.55
2023-04-09T08:10:38.105Z,11.61
2023-04-09T08:11:33.655Z,11.66
2023-04-09T08:12:29.210Z,11.64
2023-04-09T08:13:25.262Z,11.74
2023-04-09T08:14:20.808Z,11.74
2023-04-09T08:15:16.844Z,11.85
2023-04-09T08:16:12.981Z,11.97
2023-04-09T08:17:08.531Z,11.89
2023-04-09T08:18:04.101Z,12.08
2023-04-09T08:18:59.592Z,12.14
2023-04-09T08:19:55.637Z,12.21
2023-04-09T08:20:51.669Z,12.41
2023-04-09T08:21:47.709Z,12.43
2023-04-09T08:22:43.288Z,12.55
2023-04-09T08:23:39.311Z,12.72
2023-04-09T08:24:35.875Z,12.83
2023-04-09T08:25:31.434Z,12.88
2023-04-09T08:26:27.000Z,13.01
2023-04-09T08:27:23.594Z,13.23
2023-04-09T08:28:19.633Z,13.35
2023-04-09T08:29:15.204Z,13.45
2023-04-09T08:30:10.760Z,13.54
2023-04-09T08:31:06.809Z,13.61
2023-04-09T08:32:02.450Z,13.79
2023-04-09T08:32:58.027Z,13.86
2023-04-09T08:33:53.524Z,13.96
2023-04-09T08:34:49.115Z,14.12
2023-04-09T08:35:45.146Z,14.13
2023-04-09T08:36:41.248Z,14.37
2023-04-09T08:37:37.226Z,14.53
2023-04-09T08:38:33.281Z,14.66
2023-04-09T08:39:29.323Z,14.71
2023-04-09T08:40:25.371Z,14.92
2023-04-09T08:41:21.403Z,15.03
2023-04-09T08:42:17.451Z,15.19
2023-04-09T08:43:13.498Z,15.35
2023-04-09T08:44:09.042Z,15.40
2023-04-09T08:45:04.590Z,15.66
2023-04-09T08:46:00.683Z,15.80
2023-04-09T08:46:58.312Z,15.90
2023-04-09T08:47:52.416Z,16.09
2023-04-09T08:48:48.509Z,16.21
2023-04-09T08:49:44.512Z,16.34
2023-04-09T08:50:40.081Z,16.44
2023-04-09T08:51:36.101Z,16.55
2023-04-09T08:52:32.143Z,16.70
2023-04-09T08:53:28.161Z,16.80
2023-04-09T08:54:23.753Z,17.06
2023-04-09T08:55:19.313Z,17.16
2023-04-09T08:56:14.907Z,17.32
2023-04-09T08:57:10.934Z,17.35
2023-04-09T08:58:06.975Z,17.43
2023-04-09T08:59:02.541Z,17.47
2023-04-09T08:59:58.628Z,17.57
2023-04-09T09:00:54.679Z,17.87
2023-04-09T09:01:50.725Z,17.99
2023-04-09T09:02:46.764Z,18.28
2023-04-09T09:03:42.355Z,18.38
2023-04-09T09:04:38.355Z,18.38
2023-04-09T09:05:33.894Z,18.66
2023-04-09T09:06:29.953Z,18.85
2023-04-09T09:07:25.490Z,18.93
2023-04-09T09:08:21.517Z,19.05
2023-04-09T09:09:17.542Z,19.19
2023-04-09T09:10:13.129Z,19.30
2023-04-09T09:11:08.846Z,19.45
2023-04-09T09:12:04.368Z,19.59
2023-04-09T09:13:00.408Z,19.72
2023-04-09T09:13:55.963Z,19.99
2023-04-09T09:14:51.547Z,20.04
2023-04-09T09:15:47.591Z,20.30
2023-04-09T09:16:43.391Z,20.34
2023-04-09T09:17:39.282Z,20.75
2023-04-09T09:18:35.804Z,20.80
2023-04-09T09:19:31.847Z,20.97
2023-04-09T09:20:28.039Z,21.08
2023-04-09T09:21:23.957Z,21.25
2023-04-09T09:22:19.501Z,21.40
2023-04-09T09:23:15.543Z,21.53
2023-04-09T09:24:11.574Z,21.71
2023-04-09T09:25:07.640Z,21.77
2023-04-09T09:26:03.692Z,21.93
2023-04-09T09:26:59.280Z,22.13
2023-04-09T09:27:54.883Z,22.19
2023-04-09T09:28:50.563Z,22.38
2023-04-09T09:29:45.968Z,22.51
2023-04-09T09:30:41.571Z,22.62
2023-04-09T09:31:37.607Z,22.68
2023-04-09T09:32:33.230Z,23.07
2023-04-09T09:33:29.222Z,23.03
2023-04-09T09:34:24.813Z,23.29
2023-04-09T09:35:20.344Z,23.36
2023-04-09T09:36:15.996Z,23.52
2023-04-09T09:37:11.525Z,23.79
2023-04-09T09:38:07.128Z,23.96
2023-04-09T09:39:03.161Z,24.08
2023-04-09T09:39:59.194Z,24.11
2023-04-09T09:40:54.802Z,24.25
2023-04-09T09:41:50.838Z,24.38
2023-04-09T09:42:46.406Z,24.59
2023-04-09T09:43:42.571Z,24.78
2023-04-09T09:44:38.177Z,24.78
2023-04-09T09:45:34.219Z,24.94
2023-04-09T09:46:30.333Z,25.08
2023-04-09T09:47:25.875Z,25.03
2023-04-09T09:48:21.392Z,25.09
2023-04-09T09:49:16.978Z,25.36
2023-04-09T09:50:12.554Z,25.48
2023-04-09T09:51:08.625Z,25.58
2023-04-09T09:52:04.186Z,25.61
2023-04-09T09:52:59.733Z,25.83
2023-04-09T09:53:55.787Z,25.86
2023-04-09T09:54:51.805Z,25.88
2023-04-09T09:55:47.356Z,25.96
2023-04-09T09:56:42.993Z,25.92
2023-04-09T09:57:39.003Z,26.05
2023-04-09T09:58:34.634Z,26.24
2023-04-09T09:59:30.205Z,26.41
2023-04-09T10:00:26.255Z,26.76
2023-04-09T10:01:22.364Z,26.60
2023-04-09T10:02:18.520Z,26.86
2023-04-09T10:03:14.523Z,26.95
2023-04-09T10:04:10.089Z,27.16
2023-04-09T10:05:06.123Z,27.27
2023-04-09T10:06:01.688Z,27.42
2023-04-09T10:06:57.262Z,27.60
2023-04-09T10:07:53.342Z,27.73
2023-04-09T10:08:49.519Z,27.69
2023-04-09T10:09:45.427Z,27.91
2023-04-09T10:10:41.481Z,28.06
2023-04-09T10:11:37.530Z,28.09
2023-04-09T10:12:33.567Z,28.15
2023-04-09T10:13:29.685Z,28.12
2023-04-09T10:14:25.198Z,28.24
2023-04-09T10:15:21.255Z,28.17
2023-04-09T10:16:16.865Z,28.17
2023-04-09T10:17:12.373Z,28.38
2023-04-09T10:18:08.409Z,28.56
2023-04-09T10:19:04.471Z,28.79
2023-04-09T10:20:00.506Z,29.00
2023-04-09T10:20:56.091Z,28.93
2023-04-09T10:21:52.122Z,28.89
2023-04-09T10:22:48.164Z,29.09
2023-04-09T10:23:43.747Z,29.28
2023-04-09T10:24:39.275Z,29.43
2023-04-09T10:25:35.333Z,29.47
2023-04-09T10:26:31.432Z,29.54
2023-04-09T10:27:27.425Z,29.59
2023-04-09T10:28:23.486Z,29.63
2023-04-09T10:29:19.530Z,29.66
2023-04-09T10:30:15.176Z,29.93
2023-04-09T10:31:11.142Z,29.92
2023-04-09T10:32:07.280Z,29.86
2023-04-09T10:33:03.288Z,30.05
2023-04-09T10:33:59.273Z,30.15
2023-04-09T10:34:54.860Z,30.10
2023-04-09T10:35:50.426Z,30.17
2023-04-09T10:36:46.468Z,30.03
2023-04-09T10:37:42.501Z,29.96
2023-04-09T10:38:38.079Z,30.03
2023-04-09T10:39:33.664Z,30.18
2023-04-09T10:40:29.235Z,30.32
2023-04-09T10:41:25.304Z,30.33
2023-04-09T10:42:20.870Z,30.60
2023-04-09T10:43:16.918Z,30.58
2023-04-09T10:44:12.969Z,30.89
2023-04-09T10:45:09.023Z,30.71
2023-04-09T10:46:05.141Z,30.80
2023-04-09T10:47:00.666Z,30.78
2023-04-09T10:47:56.211Z,30.68
2023-04-09T10:48:51.933Z,30.74
2023-04-09T10:49:47.335Z,30.75
2023-04-09T10:50:42.916Z,30.56
2023-04-09T10:51:38.502Z,30.45
2023-04-09T10:52:34.526Z,30.68
2023-04-09T10:53:30.582Z,30.83
2023-04-09T10:54:26.619Z,30.93
2023-04-09T10:55:22.208Z,30.99
2023-04-09T10:56:17.758Z,30.92
2023-04-09T10:57:13.311Z,30.75
2023-04-09T10:58:11.964Z,30.36
2023-04-09T10:59:04.912Z,30.65
2023-04-09T11:00:00.982Z,30.89
2023-04-09T11:00:57.014Z,30.96
2023-04-09T11:01:52.653Z,30.95
2023-04-09T11:02:48.822Z,30.93
2023-04-09T11:03:44.654Z,31.22
2023-04-09T11:04:40.250Z,31.11
2023-04-09T11:05:35.825Z,31.01
2023-04-09T11:06:31.869Z,30.97
2023-04-09T11:07:27.408Z,30.99
2023-04-09T11:08:23.456Z,30.88
2023-04-09T11:09:19.476Z,30.95
2023-04-09T11:10:15.030Z,31.05
2023-04-09T11:11:11.078Z,31.22
2023-04-09T11:12:07.101Z,31.46
2023-04-09T11:13:03.217Z,31.44
2023-04-09T11:13:58.728Z,31.38
2023-04-09T11:14:54.291Z,31.39
2023-04-09T11:15:49.900Z,31.41
2023-04-09T11:16:45.515Z,31.23
2023-04-09T11:17:41.491Z,31.15
2023-04-09T11:18:38.535Z,31.32
2023-04-09T11:19:34.574Z,31.44
2023-04-09T11:20:30.136Z,31.45
2023-04-09T11:21:25.704Z,31.10
2023-04-09T11:22:21.254Z,30.78
2023-04-09T11:23:16.903Z,30.70
2023-04-09T11:24:12.947Z,30.89
2023-04-09T11:25:08.984Z,31.14
2023-04-09T11:26:05.580Z,31.33
2023-04-09T11:27:01.182Z,31.45
2023-04-09T11:27:56.714Z,31.17
2023-04-09T11:28:54.011Z,30.85
2023-04-09T11:29:49.784Z,29.89
2023-04-09T11:30:45.835Z,29.52
2023-04-09T11:31:41.437Z,30.18
2023-04-09T11:32:37.447Z,30.73
2023-04-09T11:33:33.476Z,30.89
2023-04-09T11:34:29.038Z,31.04
2023-04-09T11:35:25.087Z,31.04
2023-04-09T11:36:21.138Z,31.29
2023-04-09T11:37:17.712Z,31.42
2023-04-09T11:38:13.763Z,31.71
2023-04-09T11:39:09.811Z,31.78
2023-04-09T11:40:05.373Z,31.71
2023-04-09T11:41:01.413Z,31.24
2023-04-09T11:41:56.976Z,30.95
2023-04-09T11:42:52.554Z,31.02
2023-04-09T11:43:48.134Z,31.04
2023-04-09T11:44:44.156Z,31.14
2023-04-09T11:45:39.754Z,31.17
2023-04-09T11:46:35.828Z,31.02
2023-04-09T11:47:31.864Z,31.26
2023-04-09T11:48:27.883Z,31.19
2023-04-09T11:49:23.442Z,31.51
2023-04-09T11:50:20.492Z,31.51
2023-04-09T11:51:16.511Z,31.54
2023-04-09T11:52:12.559Z,31.19
2023-04-09T11:53:09.368Z,31.33
2023-04-09T11:54:04.642Z,30.96
2023-04-09T11:55:00.705Z,30.86
2023-04-09T11:55:56.316Z,30.71
2023-04-09T11:56:51.886Z,31.01
2023-04-09T11:57:47.931Z,31.17
2023-04-09T11:58:43.512Z,30.93
2023-04-09T11:59:39.545Z,30.93
2023-04-09T12:00:35.118Z,31.24
2023-04-09T12:01:31.162Z,31.67
2023-04-09T12:02:26.771Z,31.94
2023-04-09T12:03:22.431Z,32.05
2023-04-09T12:04:17.975Z,31.63
2023-04-09T12:05:13.525Z,31.19
2023-04-09T12:06:08.984Z,31.11
2023-04-09T12:07:05.027Z,31.42
2023-04-09T12:08:00.624Z,31.54
2023-04-09T12:08:56.655Z,31.79
2023-04-09T12:09:52.694Z,31.91
2023-04-09T12:10:48.731Z,32.01
2023-04-09T12:11:44.778Z,31.20
2023-04-09T12:12:40.336Z,30.78
2023-04-09T12:13:36.378Z,31.05
2023-04-09T12:14:31.973Z,31.33